Weather observations for the past three days for
Beatrice Municipal
Metric (Imperial)
Date Time (cdt) Wind (kph) Vis. (km) Weather Sky Cond. Temperature (ºC) Relative Humidity Wind Chill (°C) Heat Index (°C) Pressure Precipitation (cm)
Air Dwpt 6 hour altimeter (cm) sea level (mb) 1 hr 3 hr 6 hr
Max. Min.
04 05:15 Calm 16.09 Fair CLR 12.7 3.2 53% 75.21 0.0
04 04:55 Calm 16.09 Fair CLR 12.6 3.2 53% 75.21 0.0
04 04:35 Calm 16.09 Fair CLR 12.6 3.5 54% 75.21 0.0
04 04:15 Calm 16.09 Fair CLR 12.4 3.7 56% 75.23 0.0
04 03:55 Calm 16.09 Fair CLR 12.9 3.7 54% 75.23 0.0
04 03:35 Calm 16.09 Fair CLR 14.1 3.2 48% 75.29 0.0
04 03:15 SE 6 16.09 Fair CLR 14.5 3.3 47% 75.29 0.0
04 02:55 Calm 16.09 Fair CLR 15.2 3.1 44% 75.34 0.0
04 02:35 Calm 16.09 Fair CLR 15 3.5 46% 75.39 0.0
04 02:15 Calm 16.09 Partly Cloudy SCT120 14.9 3.7 47% 75.41 0.0
04 01:55 SE 7 16.09 Partly Cloudy SCT120 16.4 3.1 41% 75.44 0.0
04 01:35 SE 6 16.09 Fair CLR 16.4 3.5 42% 75.46 0.0
04 01:15 Calm 16.09 Fair CLR 16.4 3.6 43% 75.49 0.0
04 00:55 SE 6 16.09 Fair CLR 16.9 3.5 23.9 16.6 41% 75.51 0.0
04 00:35 SE 6 16.09 Fair CLR 17.1 3.5 41% 75.51 0.0
04 00:15 SE 7 16.09 Fair CLR 16.9 3.7 42% 75.51 0.0
03 23:55 E 7 16.09 Fair CLR 17.1 3.5 41% 75.51 0.0
03 23:35 E 9 16.09 Fair CLR 17.1 3.5 41% 75.54 0.0
03 23:15 E 6 16.09 Fair CLR 17.5 3.5 40% 75.54 0.0
03 22:55 E 7 16.09 Fair CLR 17.1 3.8 41% 75.57 0.0
03 22:35 E 6 16.09 Fair CLR 17.9 3.9 40% 75.59 0.0
03 22:15 E 6 16.09 Fair CLR 18.5 4 38% 75.62 0.0
03 21:55 NE 7 16.09 Fair CLR 18.3 4.3 40% 75.62 0.0
03 21:35 E 6 16.09 Fair CLR 19.3 3.7 36% 75.62 0.0
03 21:15 NE 7 16.09 Fair CLR 19.8 3.5 34% 75.59 0.0
03 20:55 E 6 16.09 Fair CLR 19.3 3.9 36% 75.59 0.0
03 20:35 Calm 16.09 Fair CLR 21.4 3.1 30% 75.59 0.0
03 20:15 E 7 16.09 Fair CLR 22 2.5 28% 75.59 0.0
03 19:55 NE 6 16.09 Fair CLR 22.6 2.5 27% 75.59 0.0
03 19:35 NE 7 16.09 Fair CLR 23 2.7 26% 75.62 0.0
03 19:15 NE 9 16.09 Fair CLR 23 3.4 28% 75.62 0.0
03 18:55 NE 9 16.09 Fair CLR 23.9 2.8 25.7 23.5 25% 25 75.64 0.0
03 18:35 NE 9 16.09 Fair CLR 24.4 2.9 25% 25 75.64 0.0
03 18:15 NE 6 16.09 Fair CLR 25 2.4 23% 25 75.67 0.0
03 17:35 N 6 16.09 Fair CLR 25.4 2.1 22% 25 75.69 0.0
03 17:15 NE 17 16.09 Fair CLR 25.6 2.8 23% 25 75.69 0.0
03 16:55 E 7 16.09 Fair CLR 25.3 1.4 21% 25 75.69 0.0
03 16:35 NE 6 16.09 Fair CLR 25.3 1.6 21% 25 75.72 0.0
03 16:15 N 6 16.09 Fair CLR 25.2 1.5 21% 25 75.74 0.0
03 15:55 NE 11 16.09 Fair CLR 25.1 1.7 22% 25 75.77 0.0
03 15:35 N 17 16.09 Fair CLR 25.5 3.2 24% 25 75.77 0.0
03 15:15 Calm 16.09 Fair CLR 24.8 2.6 24% 25 75.79 0.0
03 14:55 Calm 16.09 Fair CLR 24.7 1.6 22% 25 75.82 0.0
03 14:35 Calm 16.09 Fair CLR 25.2 2.7 23% 25 75.82 0.0
03 14:15 N 6 16.09 Fair CLR 24.6 2.8 24% 25 75.82 0.0
03 13:55 N 13 16.09 Fair CLR 24.6 2.2 23% 25 75.84 0.0
03 13:35 N 15 16.09 Fair CLR 24.4 3.2 25% 25 75.87 0.0
03 13:15 N 13 16.09 Fair CLR 23.8 2.4 25% 75.87 0.0
03 12:55 N 6 16.09 Fair CLR 23.7 1.8 24 10.3 24% 75.9 0.0
03 12:35 N 15 16.09 Fair CLR 23.5 2 24% 75.92 0.0
03 12:15 NE 9 16.09 Fair CLR 22.8 2.3 26% 75.92 0.0
03 11:35 N 11 16.09 Fair CLR 22 4.6 32% 75.97 0.0
03 11:15 NW 13 16.09 Fair CLR 21 4.5 34% 75.97 0.0
03 10:55 W 11 16.09 Fair CLR 20.3 4.2 35% 75.97 0.0
03 10:35 W 15 16.09 Fair CLR 19.9 4.7 37% 75.95 0.0
03 10:15 W 19 16.09 Fair CLR 18.3 4.5 40% 75.97 0.0
03 09:55 W 17 16.09 Fair CLR 17.6 4.1 41% 75.95 0.0
03 09:35 W 17 16.09 Fair CLR 17.4 4.7 43% 75.95 0.0
03 09:15 W 17 16.09 Fair CLR 16.5 4.2 44% 75.95 0.0
03 08:55 W 17 16.09 Fair CLR 16.1 4.4 46% 75.95 0.0
03 08:35 W 20 16.09 Fair CLR 15.2 4.3 48% 75.97 0.0
03 08:15 W 17 16.09 Fair CLR 14.5 4.1 50% 75.97 0.0
03 07:55 SW 13 16.09 Fair CLR 13.4 3.7 52% 75.95 0.0
03 07:35 SW 13 16.09 Fair CLR 12 3.4 56% 75.97 0.0
03 07:15 SW 9 16.09 Fair CLR 11 3.2 59% 75.97 0.0
03 06:55 W 7 16.09 Fair CLR 10.4 2.8 12.5 10.4 60% 75.97 0.0
03 06:35 SW 13 16.09 Fair CLR 11.1 2.4 55% 75.92 0.0
03 06:15 SW 15 16.09 Fair CLR 11.1 2 54% 75.9 0.0
03 05:35 SW 17 16.09 Fair CLR 11.9 1.1 48% 75.9 0.0
03 05:15 SW 13 16.09 Fair CLR 11.9 0.7 47% 75.9 0.0
03 04:55 SW 17 G 30 16.09 Fair CLR 12.2 0.3 44% 75.92 0.0
03 04:35 SW 15 16.09 Fair CLR 12.4 0 43% 75.95 0.0
03 04:15 S 13 16.09 Fair CLR 12.2 0 43% 75.95 0.0
03 03:55 S 13 16.09 Fair CLR 11.8 0 45% 75.97 0.0
03 03:35 S 15 16.09 Fair CLR 11.8 0.1 45% 75.97 0.0
03 03:15 S 17 16.09 Fair CLR 12 0 44% 75.97 0.0
03 02:55 S 17 G 26 16.09 Fair CLR 12 0 44% 75.97 0.0
03 02:35 S 20 G 26 16.09 Fair CLR 12.2 0 43% 76 0.0
03 02:15 S 19 G 26 16.09 Fair CLR 12.4 0 43% 76 0.0
03 01:55 S 17 16.09 Fair CLR 11.7 0.4 46% 76.02 0.0
03 01:35 S 17 16.09 Fair CLR 11.7 0.3 46% 76.02 0.0
03 01:15 S 17 16.09 Fair CLR 11.8 0.1 45% 76.05 0.0
03 00:55 S 19 16.09 Fair CLR 12.3 0 20.6 12.3 43% 76.05 0.0
03 00:35 S 19 G 28 16.09 Fair CLR 12.6 -0.1 42% 76.07 0.0
03 00:15 S 22 16.09 Fair CLR 12.7 -0.3 41% 76.07 0.0
02 23:55 S 19 16.09 Fair CLR 12.6 -0.2 42% 76.07 0.0
02 23:35 S 19 16.09 Fair CLR 13 -0.5 40% 76.1 0.0
02 23:15 S 20 16.09 Fair CLR 13.3 -0.9 38% 76.12 0.0
02 22:55 S 20 16.09 Fair CLR 13.5 -1.2 36% 76.12 0.0
02 22:35 S 17 16.09 Fair CLR 13.6 -1.5 35% 76.15 0.0
02 22:15 S 17 16.09 Fair CLR 13.4 -0.7 38% 76.15 0.0
02 21:55 S 15 16.09 Fair CLR 13.9 -0.6 37% 76.17 0.0
02 21:35 S 15 16.09 Fair CLR 14.5 -0.6 36% 76.17 0.0
02 21:15 SW 15 16.09 Fair CLR 15.1 -0.6 34% 76.2 0.0
02 20:55 SW 15 16.09 Fair CLR 15.5 -0.4 34% 76.17 0.0
02 20:35 SW 15 16.09 Fair CLR 16.6 -1.1 30% 76.2 0.0
02 20:15 SW 13 16.09 Fair CLR 17.5 -1.1 28% 76.2 0.0
02 19:55 SW 19 16.09 Fair CLR 18.5 -1.5 26% 76.2 0.0
02 19:35 SW 17 16.09 Fair CLR 19.6 -3.1 21% 76.2 0.0
02 19:15 SW 17 16.09 Fair CLR 20.2 -3.9 19% 76.2 0.0
02 18:55 W 15 16.09 Fair CLR 20.6 -4.1 21.1 16 19% 76.23 0.0
02 18:35 SW 17 16.09 Fair CLR 20.8 -4.3 18% 76.23 0.0
02 18:15 SW 15 16.09 Fair CLR 20.9 -4.1 18% 76.25 0.0
02 17:55 SW 15 16.09 Fair CLR 21 -3.9 18% 76.25 0.0
02 17:35 SW 13 G 28 16.09 Fair CLR 20.7 -4.1 19% 76.28 0.0
02 17:15 SW 11 G 31 16.09 Fair CLR 20.7 -4.6 18% 76.28 0.0
02 16:55 SW 15 16.09 Fair CLR 20.3 -3.8 19% 76.3 0.0
02 16:35 W 15 16.09 Fair CLR 20.1 -2.7 21% 76.33 0.0
02 16:15 Calm 16.09 Fair CLR 19.6 -4 20% 76.35 0.0
02 15:55 W 17 16.09 Fair CLR 19.7 -2.4 22% 76.38 0.0
02 15:35 W 9 16.09 Fair CLR 19.1 -1.7 25% 76.4 0.0
02 15:15 N 7 G 15 16.09 Fair CLR 18.6 -2.5 24% 76.45 0.0
02 14:35 SW 15 16.09 Fair CLR 18 -1.8 26% 76.48 0.0
02 14:15 W 15 16.09 Fair CLR 17.7 -1.8 27% 76.5 0.0
02 13:55 W 6 16.09 Fair CLR 17.1 -2.3 27% 76.53 0.0
02 13:35 W 9 16.09 Fair CLR 17.1 -0.9 30% 76.56 0.0
02 13:15 SW 11 16.09 Fair CLR 16.4 -1.9 29% 76.58 0.0
02 12:55 SW 7 16.09 Fair CLR 16.1 -2.3 16.2 0.2 28% 76.58 0.0
02 12:35 NW 11 16.09 Fair CLR 16.1 -2 29% 76.61 0.0
02 12:15 NW 6 16.09 Fair CLR 15.2 -2 31% 76.63 0.0
02 11:55 W 9 16.09 Fair CLR 14.9 -2.1 31% 76.63 0.0
02 11:35 W 9 16.09 Fair CLR 14.5 -2.4 31% 76.66 0.0
02 11:15 NW 7 16.09 Fair CLR 14.7 -1.5 33% 76.66 0.0
02 10:55 W 13 16.09 Fair CLR 13.9 -1 36% 76.68 0.0
02 10:35 NW 7 16.09 Fair CLR 12.9 -1.6 37% 76.68 0.0
02 10:15 W 9 16.09 Fair CLR 12.6 -1 39% 76.68 0.0
02 09:55 W 11 16.09 Fair CLR 11.4 -0.3 45% 76.68 0.0
02 09:35 W 11 16.09 Fair CLR 10.4 0 49% 76.71 0.0
02 09:15 W 7 16.09 Fair CLR 9 0.6 56% 8 76.71 0.0
02 08:55 NW 7 16.09 Fair CLR 7.8 0.9 62% 7 76.68 0.0
02 08:35 Calm 16.09 Fair CLR 6.5 0.7 67% 76.68 0.0
02 08:15 Calm 16.09 Fair CLR 5.1 0.4 72% 76.68 0.0
02 07:55 Calm 16.09 Fair CLR 3.7 0.1 78% 76.68 0.0
02 07:35 Calm 16.09 Fair CLR 2.1 -0.1 86% 76.66 0.0
02 07:15 Calm 16.09 Fair CLR 1 -0.9 87% 76.66 0.0
02 06:55 Calm 16.09 Fair CLR 0.2 -1.2 4.1 0 90% 76.63 0.0
02 06:35 Calm 16.09 Fair CLR 0.2 -1.2 90% 76.63 0.0
02 06:15 Calm 16.09 Fair CLR 0.3 -1.3 89% 76.63 0.0
02 05:55 Calm 16.09 Fair CLR 0.4 -1.4 88% 76.63 0.0
02 05:35 Calm 16.09 Fair CLR 0.5 -1.1 89% 76.63 0.0
02 05:15 Calm 16.09 Fair CLR 1 -1.1 86% 76.63 0.0
02 04:55 Calm 16.09 Fair CLR 1.3 -1.2 84% 76.63 0.0
02 04:35 Calm 16.09 Fair CLR 1 -1.1 86% 76.61 0.0
02 04:15 Calm 16.09 Fair CLR 1.5 -1 84% 76.61 0.0
02 03:55 Calm 16.09 Fair CLR 1.7 -0.9 83% 76.61 0.0
02 03:35 Calm 16.09 Fair CLR 1.9 -0.5 84% 76.61 0.0
02 03:15 Calm 16.09 Fair CLR 1.6 -0.8 84% 76.61 0.0
02 02:55 Calm 16.09 Fair CLR 2 -1.5 78% 76.61 0.0
02 02:35 Calm 16.09 Fair CLR 2 -2 75% 76.61 0.0
02 02:15 NW 6 16.09 Fair CLR 1.6 -2 77% 76.61 0.0
02 01:55 Calm 16.09 Fair CLR 2.4 -1.6 75% 76.61 0.0
02 01:35 Calm 16.09 Fair CLR 2.6 -1.3 76% 76.61 0.0
02 01:15 Calm 16.09 Fair CLR 2.4 -1.8 74% 76.61 0.0
02 00:55 Calm 16.09 Fair CLR 4.1 -1.8 15.5 4.1 66% 76.58 0.0
02 00:35 Calm 16.09 Fair CLR 4.6 -1.5 65% 76.58 0.0
02 00:15 Calm 16.09 Fair CLR 4.8 -1.6 64% 76.58 0.0
01 23:55 Calm 16.09 Fair CLR 5.2 -1.8 61% 76.56 0.0
01 23:35 Calm 16.09 Fair CLR 6.1 -2.2 56% 76.56 0.0
01 23:15 NE 6 16.09 Fair CLR 7.3 -3 48% 76.56 0.0
01 22:55 NE 7 16.09 Fair CLR 7.5 -2.7 49% 6 76.53 0.0
01 22:35 NE 7 16.09 Fair CLR 8 -3.1 46% 7 76.53 0.0
01 22:15 NE 7 16.09 Fair CLR 8.4 -3.1 45% 8 76.53 0.0
01 21:55 NE 11 16.09 Fair CLR 8.5 -3.2 44% 7 76.5 0.0
01 21:35 NE 7 16.09 Fair CLR 9.4 -3.3 41% 9 76.5 0.0
01 21:15 NE 9 16.09 Fair CLR 9.9 -3.7 39% 9 76.48 0.0
01 20:35 N 13 16.09 Fair CLR 11.8 -4.5 32% 76.43 0.0
01 20:15 N 13 16.09 Fair CLR 12.7 -4.6 30% 76.43 0.0
01 19:55 N 15 16.09 Fair CLR 13.7 -5.4 26% 76.4 0.0
01 19:35 N 19 16.09 Fair CLR 14.2 -5.5 25% 76.35 0.0
01 19:15 N 20 16.09 Fair CLR 15 -5.4 24% 76.35 0.0
01 18:55 N 30 16.09 Fair CLR 15.6 -5.1 17.3 15.5 24% 76.35 0.0
01 18:35 N 24 G 37 16.09 Fair CLR 16 -4.8 24% 76.35 0.0
01 18:15 N 31 16.09 Partly Cloudy SCT075 16 -2.8 28% 76.35 0.0
01 17:55 N 28 G 35 16.09 Mostly Cloudy BKN075 16.5 -2.5 27% 76.33 0.0
01 17:35 N 28 G 33 16.09 Mostly Cloudy BKN075 16.4 -1.5 30% 76.33 0.0
01 17:15 NW 19 G 33 16.09 Partly Cloudy SCT075 16.9 -1.2 29% 76.33 0.0
01 16:55 N 28 G 35 16.09 Partly Cloudy SCT075 16.6 -0.8 31% 76.33 0.0
01 16:35 NW 22 G 33 16.09 Partly Cloudy SCT075 17 -0.9 30% 76.35 0.0
01 16:15 NW 17 G 39 16.09 Partly Cloudy SCT080 SCT090 17 -1 30% 76.35 0.0
01 15:55 NW 20 G 37 16.09 Partly Cloudy SCT080 SCT090 17.1 -0.5 30% 76.38 0.0
01 15:35 NW 13 G 19 16.09 Partly Cloudy SCT080 SCT090 16.6 -0.7 31% 76.38 0.0
01 15:15 NW 15 G 35 16.09 Partly Cloudy SCT070 17.3 0 31% 76.4 0.0
01 14:55 N 22 G 28 16.09 Partly Cloudy SCT070 17 -0.4 31% 76.43 0.0
01 14:35 N 22 G 54 16.09 Fair CLR 16.3 -0.8 31% 76.43 0.0
01 14:15 N 22 G 31 16.09 Fair CLR 16.4 -0.3 32% 76.43 0.0
01 13:55 N 7 16.09 Fair CLR 16.1 -0.4 33% 76.43 0.0
01 13:35 N 15 G 33 16.09 Fair CLR 15.8 -0.7 33% 76.43 0.0
01 13:15 N 19 G 31 16.09 Fair CLR 15.8 -1 32% 76.45 0.0
01 12:55 NW 15 G 26 16.09 Fair CLR 15.9 -0.8 15.9 1.8 32% 76.45 0.0
01 12:35 NW 19 G 28 16.09 Fair CLR 15.6 -0.6 33% 76.45 0.0
01 12:15 NW 11 G 31 16.09 Fair CLR 15.3 -0.6 34% 76.45 0.0
01 11:55 N 11 G 28 16.09 Fair CLR 14.9 -0.3 36% 76.45 0.0
01 11:35 N 20 G 31 16.09 Fair CLR 14.6 -0.2 37% 76.45 0.0
01 11:15 NW 11 G 30 16.09 Fair CLR 13.8 0.4 40% 76.45 0.0
01 10:55 N 19 16.09 Fair CLR 13.5 0.9 42% 76.48 0.0
01 10:35 NW 11 16.09 Fair CLR 12.8 0.1 42% 76.45 0.0
01 10:15 NW 13 16.09 Fair CLR 12.2 0.2 44% 76.45 0.0
01 09:55 NW 13 16.09 Fair CLR 11.6 2.3 53% 76.45 0.0
01 09:35 NW 19 G 26 16.09 Fair CLR 11.6 1.8 51% 76.45 0.0
01 09:15 W 15 16.09 Fair CLR 10.4 2.7 59% 76.45 0.0
01 08:55 W 17 16.09 Fair CLR 9.4 2.6 63% 7 76.45 0.0
01 08:35 W 13 16.09 Fair CLR 8 2.7 70% 6 76.48 0.0
01 08:15 NW 11 16.09 Fair CLR 6.2 2.2 76% 4 76.5 0.0
01 07:55 NW 13 16.09 Fair CLR 5.1 1.8 79% 3 76.5 0.0
01 07:35 NW 9 16.09 Fair CLR 3.5 1.4 86% 1 76.48 0.0
01 07:15 Calm 16.09 Fair CLR 2.3 1 91% 76.43 0.0
01 06:55 W 9 16.09 Fair CLR 1.6 0.1 5.1 0.5 90% -1 76.43 0.0
01 06:35 W 6 16.09 Fair CLR 0.6 -0.7 91% 76.4 0.0
01 06:15 Calm 16.09 Fair CLR 2.2 0.3 87% 76.4 0.0
01 05:55 Calm 16.09 Fair CLR 2.3 0 85% 76.38 0.0
01 05:35 Calm 16.09 Fair CLR 2.3 0.1 86% 76.4 0.0
Date Time (cdt) Wind (kph) Vis. (km) Weather Sky Cond. Air Dwpt Max. Min. Relative Humidity Wind Chill (°C) Heat Index (°C) altimeter (cm) sea level (mb) 1 hr 3 hr 6 hr
6 hour
Temperature (ºC) Pressure Precipitation (cm)